createdAt,value
2019-05-18T00:00:49.166Z,16.20
2019-05-18T00:03:17.075Z,16.10
2019-05-18T00:05:44.884Z,16.10
2019-05-18T00:08:12.837Z,16.20
2019-05-18T00:10:40.798Z,16.20
2019-05-18T00:13:08.683Z,16.10
2019-05-18T00:15:36.565Z,16.10
2019-05-18T00:18:04.491Z,16.10
2019-05-18T00:20:32.308Z,16.10
2019-05-18T00:23:00.250Z,16.10
2019-05-18T00:25:28.143Z,16.00
2019-05-18T00:27:55.989Z,16.00
2019-05-18T00:30:23.961Z,16.00
2019-05-18T00:32:51.853Z,16.00
2019-05-18T00:35:19.731Z,15.90
2019-05-18T00:37:47.544Z,15.90
2019-05-18T00:40:15.526Z,15.90
2019-05-18T00:42:43.486Z,15.80
2019-05-18T00:45:11.374Z,15.80
2019-05-18T00:47:41.826Z,15.80
2019-05-18T00:50:08.943Z,15.80
2019-05-18T00:52:36.810Z,15.80
2019-05-18T00:55:06.171Z,15.80
2019-05-18T00:57:34.062Z,15.80
2019-05-18T01:00:01.950Z,15.70
2019-05-18T01:02:29.846Z,15.70
2019-05-18T01:04:57.735Z,15.80
2019-05-18T01:07:25.659Z,15.80
2019-05-18T01:09:53.611Z,15.70
2019-05-18T01:12:21.506Z,15.70
2019-05-18T01:14:49.386Z,15.70
2019-05-18T01:17:17.286Z,15.70
2019-05-18T01:19:45.103Z,15.70
2019-05-18T01:22:13.092Z,15.70
2019-05-18T01:24:40.967Z,15.60
2019-05-18T01:27:08.859Z,15.70
2019-05-18T01:29:36.810Z,15.60
2019-05-18T01:32:04.698Z,15.60
2019-05-18T01:34:32.607Z,15.60
2019-05-18T01:37:00.487Z,15.60
2019-05-18T01:39:28.306Z,15.60
2019-05-18T01:41:56.203Z,15.50
2019-05-18T01:44:24.102Z,15.50
2019-05-18T01:46:52.016Z,15.50
2019-05-18T01:49:19.835Z,15.50
2019-05-18T01:51:47.790Z,15.60
2019-05-18T01:54:15.683Z,15.50
2019-05-18T01:57:02.834Z,15.50
2019-05-18T01:59:30.829Z,15.50
2019-05-18T02:01:58.681Z,15.50
2019-05-18T02:04:26.567Z,15.50
2019-05-18T02:06:54.452Z,15.50
2019-05-18T02:09:22.274Z,15.50
2019-05-18T02:11:50.103Z,15.50
2019-05-18T02:14:17.982Z,15.50
2019-05-18T02:16:45.881Z,15.50
2019-05-18T02:19:13.838Z,15.50
2019-05-18T02:21:41.761Z,15.50
2019-05-18T02:24:09.744Z,15.50
2019-05-18T02:26:37.630Z,15.50
2019-05-18T02:29:05.442Z,15.50
2019-05-18T02:31:33.272Z,15.60
2019-05-18T02:34:01.099Z,15.50
2019-05-18T02:36:28.985Z,15.50
2019-05-18T02:38:56.947Z,15.50
2019-05-18T02:41:24.834Z,15.50
2019-05-18T02:43:52.719Z,15.50
2019-05-18T02:46:20.607Z,15.50
2019-05-18T02:48:50.601Z,15.60
2019-05-18T02:51:18.119Z,15.60
2019-05-18T02:53:46.025Z,15.70
2019-05-18T02:56:13.964Z,15.70
2019-05-18T02:58:41.927Z,15.70
2019-05-18T03:01:09.813Z,15.70
2019-05-18T03:03:37.706Z,15.70
2019-05-18T03:06:05.604Z,15.70
2019-05-18T03:08:33.421Z,15.60
2019-05-18T03:11:01.343Z,15.60
2019-05-18T03:13:29.219Z,15.60
2019-05-18T03:15:57.172Z,15.60
2019-05-18T03:18:25.159Z,15.50
2019-05-18T03:20:53.105Z,15.50
2019-05-18T03:23:21.012Z,15.50
2019-05-18T03:25:48.890Z,15.50
2019-05-18T03:28:16.817Z,15.50
2019-05-18T03:30:44.719Z,15.50
2019-05-18T03:33:12.593Z,15.50
2019-05-18T03:35:40.494Z,15.60
2019-05-18T03:38:08.387Z,15.60
2019-05-18T03:40:55.602Z,15.60
2019-05-18T03:43:23.561Z,15.70
2019-05-18T03:45:51.390Z,15.70
2019-05-18T03:48:19.355Z,15.80
2019-05-18T03:50:47.248Z,15.80
2019-05-18T03:53:18.132Z,15.90
2019-05-18T03:55:44.685Z,15.90
2019-05-18T03:58:12.568Z,16.00
2019-05-18T04:00:40.384Z,16.00
2019-05-18T04:03:08.216Z,16.00
2019-05-18T04:05:36.131Z,16.10
2019-05-18T04:08:04.027Z,16.10
2019-05-18T04:10:31.924Z,16.20
2019-05-18T04:12:59.813Z,16.20
2019-05-18T04:15:27.691Z,16.30
2019-05-18T04:17:55.511Z,16.40
2019-05-18T04:20:23.444Z,16.40
2019-05-18T04:22:51.263Z,16.40
2019-05-18T04:25:19.152Z,16.50
2019-05-18T04:27:47.080Z,16.50
2019-05-18T04:30:15.267Z,16.50
2019-05-18T04:32:43.161Z,16.70
2019-05-18T04:35:11.353Z,16.80
2019-05-18T04:37:39.239Z,16.90
2019-05-18T04:40:07.548Z,16.90
2019-05-18T04:42:35.503Z,16.90
2019-05-18T04:45:03.990Z,17.00
2019-05-18T04:47:31.950Z,17.20
2019-05-18T04:50:05.393Z,17.40
2019-05-18T04:52:29.304Z,17.80
2019-05-18T04:54:57.125Z,18.30
2019-05-18T04:57:24.937Z,18.80
2019-05-18T04:59:52.855Z,19.30
2019-05-18T05:02:20.735Z,19.70
2019-05-18T05:04:51.812Z,20.20
2019-05-18T05:07:18.191Z,20.20
2019-05-18T05:09:46.080Z,20.60
2019-05-18T05:12:13.970Z,21.20
2019-05-18T05:14:41.851Z,21.40
2019-05-18T05:17:10.682Z,21.70
2019-05-18T05:19:38.576Z,21.80
2019-05-18T05:22:06.471Z,22.10
2019-05-18T05:24:34.350Z,21.60
2019-05-18T05:27:02.246Z,21.10
2019-05-18T05:29:30.138Z,20.90
2019-05-18T05:31:58.202Z,20.80
2019-05-18T05:34:26.101Z,20.80
2019-05-18T05:36:53.894Z,21.00
2019-05-18T05:39:21.787Z,20.80
2019-05-18T05:41:49.688Z,20.90
2019-05-18T05:44:17.578Z,20.80
2019-05-18T05:46:45.467Z,20.90
2019-05-18T05:49:13.351Z,20.90
2019-05-18T05:51:41.242Z,20.80
2019-05-18T05:54:09.142Z,20.80
2019-05-18T05:56:36.966Z,21.10
2019-05-18T05:59:04.927Z,21.20
2019-05-18T06:01:32.823Z,20.90
2019-05-18T06:04:02.025Z,20.80
2019-05-18T06:06:29.981Z,20.80
2019-05-18T06:08:57.847Z,20.80
2019-05-18T06:11:25.830Z,20.70
2019-05-18T06:13:53.796Z,20.80
2019-05-18T06:16:21.685Z,20.70
2019-05-18T06:18:49.506Z,20.60
2019-05-18T06:21:17.405Z,20.70
2019-05-18T06:23:45.238Z,20.70
2019-05-18T06:26:13.211Z,20.60
2019-05-18T06:28:41.085Z,20.50
2019-05-18T06:31:08.976Z,20.60
2019-05-18T06:33:36.863Z,20.60
2019-05-18T06:36:06.706Z,20.60
2019-05-18T06:38:34.447Z,20.70
2019-05-18T06:41:02.263Z,20.60
2019-05-18T06:43:30.151Z,20.60
2019-05-18T06:45:58.112Z,20.90
2019-05-18T06:48:26.006Z,21.10
2019-05-18T06:51:06.301Z,21.10
2019-05-18T06:53:23.553Z,21.10
2019-05-18T06:55:52.356Z,21.10
2019-05-18T06:58:20.889Z,21.10
2019-05-18T07:00:48.775Z,21.00
2019-05-18T07:03:17.000Z,21.20
2019-05-18T07:05:44.954Z,21.80
2019-05-18T07:08:12.927Z,22.30
2019-05-18T07:10:40.838Z,22.60
2019-05-18T07:13:08.811Z,23.20
2019-05-18T07:15:36.585Z,23.40
2019-05-18T07:18:04.398Z,23.60
2019-05-18T07:20:32.287Z,23.70
2019-05-18T07:23:00.235Z,23.50
2019-05-18T07:25:28.190Z,23.70
2019-05-18T07:27:56.077Z,23.70
2019-05-18T07:30:23.967Z,23.70
2019-05-18T07:32:51.855Z,23.70
2019-05-18T07:35:19.844Z,24.20
2019-05-18T07:37:47.673Z,24.40
2019-05-18T07:40:17.316Z,24.70
2019-05-18T07:42:45.165Z,24.50
2019-05-18T07:45:13.306Z,24.20
2019-05-18T07:47:41.195Z,23.90
2019-05-18T07:50:09.276Z,23.70
2019-05-18T07:52:37.174Z,23.60
2019-05-18T07:55:05.764Z,23.50
2019-05-18T07:57:33.728Z,23.50
2019-05-18T08:00:01.621Z,23.40
2019-05-18T08:02:29.439Z,23.50
2019-05-18T08:04:57.323Z,23.40
2019-05-18T08:07:25.217Z,23.30
2019-05-18T08:09:53.103Z,23.20
2019-05-18T08:12:20.999Z,23.00
2019-05-18T08:14:48.815Z,23.10
2019-05-18T08:17:16.639Z,23.10
2019-05-18T08:19:44.527Z,23.20
2019-05-18T08:22:12.439Z,23.10
2019-05-18T08:24:40.379Z,23.00
2019-05-18T08:27:08.281Z,23.00
2019-05-18T08:29:36.175Z,23.00
2019-05-18T08:32:04.071Z,23.00
2019-05-18T08:34:31.959Z,23.10
2019-05-18T08:36:59.844Z,23.00
2019-05-18T08:39:27.723Z,23.00
2019-05-18T08:41:55.615Z,23.00
2019-05-18T08:44:23.435Z,23.20
2019-05-18T08:46:51.323Z,23.20
2019-05-18T08:49:19.196Z,23.10
2019-05-18T08:51:47.123Z,23.20
2019-05-18T08:54:15.046Z,23.20
2019-05-18T08:56:43.003Z,23.30
2019-05-18T08:59:10.891Z,23.30
2019-05-18T09:01:38.780Z,23.20
2019-05-18T09:04:06.681Z,23.30
2019-05-18T09:06:34.564Z,23.40
2019-05-18T09:09:03.355Z,23.40
2019-05-18T09:11:31.308Z,23.50
2019-05-18T09:13:59.311Z,23.40
2019-05-18T09:16:27.158Z,23.40
2019-05-18T09:18:55.009Z,23.50
2019-05-18T09:21:22.898Z,23.40
2019-05-18T09:23:50.875Z,23.50
2019-05-18T09:26:18.747Z,23.60
2019-05-18T09:28:46.564Z,23.50
2019-05-18T09:31:14.382Z,23.50
2019-05-18T09:33:42.271Z,23.60
2019-05-18T09:36:10.188Z,23.80
2019-05-18T09:38:38.075Z,23.90
2019-05-18T09:41:05.973Z,24.10
2019-05-18T09:43:33.789Z,24.10
2019-05-18T09:46:01.678Z,24.00
2019-05-18T09:48:29.637Z,24.00
2019-05-18T09:50:57.541Z,24.20
2019-05-18T09:53:25.499Z,24.10
2019-05-18T09:55:53.402Z,24.20
2019-05-18T09:58:21.283Z,24.20
2019-05-18T10:00:51.064Z,24.30
2019-05-18T10:03:18.640Z,24.30
2019-05-18T10:05:46.463Z,24.20
2019-05-18T10:08:14.428Z,23.90
2019-05-18T10:10:42.254Z,23.80
2019-05-18T10:13:10.151Z,23.80
2019-05-18T10:15:38.038Z,24.00
2019-05-18T10:18:05.947Z,23.90
2019-05-18T10:20:33.851Z,24.00
2019-05-18T10:23:20.999Z,24.10
2019-05-18T10:25:48.969Z,24.20
2019-05-18T10:28:16.792Z,24.20
2019-05-18T10:30:44.677Z,24.20
2019-05-18T10:33:12.560Z,24.20
2019-05-18T10:35:40.388Z,24.30
2019-05-18T10:38:08.430Z,24.30
2019-05-18T10:40:36.277Z,24.30
2019-05-18T10:43:04.223Z,24.40
2019-05-18T10:45:32.119Z,24.40
2019-05-18T10:48:00.117Z,24.40
2019-05-18T10:50:28.080Z,24.40
2019-05-18T10:52:55.894Z,24.40
2019-05-18T10:55:23.931Z,24.50
2019-05-18T10:57:51.791Z,24.50
2019-05-18T11:00:19.952Z,24.50
2019-05-18T11:02:47.920Z,24.50
2019-05-18T11:05:15.910Z,24.40
2019-05-18T11:07:43.809Z,24.40
2019-05-18T11:10:11.890Z,24.50
2019-05-18T11:12:39.891Z,24.70
2019-05-18T11:15:08.387Z,24.80
2019-05-18T11:17:36.338Z,24.70
2019-05-18T11:20:08.171Z,24.80
2019-05-18T11:22:36.084Z,24.90
2019-05-18T11:25:05.370Z,24.90
2019-05-18T11:27:33.271Z,25.00
2019-05-18T11:30:01.323Z,24.90
2019-05-18T11:33:05.798Z,25.00
2019-05-18T11:35:33.754Z,25.10
2019-05-18T11:41:02.741Z,25.00
2019-05-18T11:43:30.698Z,24.90
2019-05-18T11:45:58.691Z,25.00
2019-05-18T11:48:26.662Z,25.00
2019-05-18T11:50:54.738Z,25.00
2019-05-18T11:53:22.718Z,24.90
2019-05-18T11:55:50.506Z,24.80
2019-05-18T11:58:18.419Z,24.90
2019-05-18T12:00:46.379Z,25.00
2019-05-18T12:03:14.329Z,25.00
2019-05-18T12:05:42.215Z,25.10
2019-05-18T12:08:10.099Z,25.00
2019-05-18T12:10:38.078Z,25.00
2019-05-18T12:13:05.983Z,25.00
2019-05-18T12:18:19.738Z,25.00
2019-05-18T12:20:47.779Z,25.00
2019-05-18T12:23:15.757Z,25.00
2019-05-18T12:25:43.826Z,25.00
2019-05-18T12:28:11.900Z,25.20
2019-05-18T12:30:39.955Z,25.10
2019-05-18T12:33:07.924Z,25.20
2019-05-18T12:35:35.794Z,25.30
2019-05-18T12:38:03.760Z,25.30
2019-05-18T12:40:31.752Z,25.20
2019-05-18T12:42:59.682Z,25.20
2019-05-18T12:45:27.800Z,25.20
2019-05-18T12:47:55.692Z,25.10
2019-05-18T12:50:41.953Z,25.20
2019-05-18T12:53:09.986Z,25.20
2019-05-18T12:55:56.292Z,25.30
2019-05-18T12:58:24.181Z,25.40
2019-05-18T13:00:52.068Z,25.50
2019-05-18T13:03:19.953Z,25.50
2019-05-18T13:05:47.844Z,25.50
2019-05-18T13:08:15.765Z,25.50
2019-05-18T13:10:43.600Z,25.30
2019-05-18T13:13:11.615Z,25.30
2019-05-18T13:15:39.520Z,25.30
2019-05-18T13:18:07.414Z,25.30
2019-05-18T13:20:35.302Z,25.40
2019-05-18T13:23:03.193Z,25.30
2019-05-18T13:25:31.077Z,25.40
2019-05-18T13:27:58.956Z,25.50
2019-05-18T13:30:27.036Z,25.40
2019-05-18T13:32:54.978Z,25.40
2019-05-18T13:35:23.195Z,25.30
2019-05-18T13:37:51.226Z,25.30
2019-05-18T13:40:19.291Z,25.30
2019-05-18T13:42:47.181Z,25.30
2019-05-18T13:45:15.408Z,25.30
2019-05-18T13:47:43.359Z,25.30
2019-05-18T13:50:11.617Z,25.40
2019-05-18T13:52:39.494Z,25.50
2019-05-18T13:55:07.506Z,25.60
2019-05-18T13:57:35.484Z,25.60
2019-05-18T14:00:04.646Z,25.60
2019-05-18T14:02:32.539Z,25.60
2019-05-18T14:05:00.429Z,25.60
2019-05-18T14:07:28.320Z,25.60
2019-05-18T14:09:56.214Z,25.60
2019-05-18T14:12:24.040Z,25.60
2019-05-18T14:14:51.983Z,25.60
2019-05-18T14:17:19.913Z,25.60
2019-05-18T14:19:47.892Z,25.60
2019-05-18T14:22:15.785Z,25.60
2019-05-18T14:24:43.678Z,25.50
2019-05-18T14:27:11.573Z,25.60
2019-05-18T14:29:39.458Z,25.60
2019-05-18T14:32:07.273Z,25.60
2019-05-18T14:34:35.089Z,25.70
2019-05-18T14:37:03.052Z,25.70
2019-05-18T14:39:30.966Z,25.60
2019-05-18T14:41:58.932Z,25.60
2019-05-18T14:44:26.822Z,25.60
2019-05-18T14:46:54.687Z,25.50
2019-05-18T14:49:22.550Z,25.50
2019-05-18T14:51:50.362Z,25.50
2019-05-18T14:54:18.262Z,25.50
2019-05-18T14:56:46.090Z,25.50
2019-05-18T14:59:13.903Z,25.50
2019-05-18T15:01:41.860Z,25.40
2019-05-18T15:04:09.844Z,25.40
2019-05-18T15:06:37.735Z,25.40
2019-05-18T15:09:05.849Z,25.30
2019-05-18T15:11:33.659Z,25.30
2019-05-18T15:14:01.514Z,25.30
2019-05-18T15:16:29.391Z,25.30
2019-05-18T15:18:57.199Z,25.30
2019-05-18T15:21:25.096Z,25.40
2019-05-18T15:23:52.984Z,25.40
2019-05-18T15:26:20.885Z,25.40
2019-05-18T15:28:48.772Z,25.40
2019-05-18T15:31:16.664Z,25.30
2019-05-18T15:33:44.617Z,25.30
2019-05-18T15:36:12.601Z,25.30
2019-05-18T15:38:40.619Z,25.30
2019-05-18T15:41:08.585Z,25.20
2019-05-18T15:43:36.550Z,25.20
2019-05-18T15:46:05.615Z,25.20
2019-05-18T15:48:33.560Z,25.20
2019-05-18T15:51:01.588Z,25.10
2019-05-18T15:53:29.485Z,25.00
2019-05-18T15:56:05.395Z,25.00
2019-05-18T15:58:26.923Z,25.00
2019-05-18T16:00:54.808Z,24.90
2019-05-18T16:03:22.630Z,24.90
2019-05-18T16:05:50.527Z,24.90
2019-05-18T16:08:18.418Z,24.90
2019-05-18T16:10:46.338Z,24.90
2019-05-18T16:13:14.231Z,24.80
2019-05-18T16:15:42.122Z,24.80
2019-05-18T16:18:10.031Z,24.80
2019-05-18T16:20:37.858Z,24.70
2019-05-18T16:23:05.712Z,24.70
2019-05-18T16:25:33.668Z,24.70
2019-05-18T16:28:01.488Z,24.60
2019-05-18T16:30:29.305Z,24.60
2019-05-18T16:32:57.191Z,24.50
2019-05-18T16:35:25.084Z,24.50
2019-05-18T16:37:53.139Z,24.50
2019-05-18T16:40:20.977Z,24.40
2019-05-18T16:42:48.923Z,24.40
2019-05-18T16:45:16.979Z,24.40
2019-05-18T16:47:44.804Z,24.40
2019-05-18T16:50:12.899Z,24.30
2019-05-18T16:52:40.787Z,24.40
2019-05-18T16:55:10.144Z,24.30
2019-05-18T16:57:39.966Z,24.30
2019-05-18T17:00:09.388Z,24.30
2019-05-18T17:02:37.295Z,24.20
2019-05-18T17:05:06.479Z,24.20
2019-05-18T17:07:34.443Z,24.10
2019-05-18T17:10:02.419Z,24.10
2019-05-18T17:12:30.301Z,24.10
2019-05-18T17:14:58.192Z,24.00
2019-05-18T17:17:26.092Z,23.90
2019-05-18T17:19:53.910Z,23.90
2019-05-18T17:22:21.728Z,23.80
2019-05-18T17:24:49.628Z,23.80
2019-05-18T17:27:17.546Z,23.80
2019-05-18T17:29:45.511Z,23.70
2019-05-18T17:32:13.330Z,23.70
2019-05-18T17:34:41.218Z,23.60
2019-05-18T17:37:09.139Z,23.60
2019-05-18T17:39:37.098Z,23.50
2019-05-18T17:42:06.319Z,23.50
2019-05-18T17:44:34.200Z,23.40
2019-05-18T17:47:02.090Z,23.40
2019-05-18T17:49:29.993Z,23.40
2019-05-18T17:51:57.955Z,23.40
2019-05-18T17:54:25.827Z,23.40
2019-05-18T17:57:07.496Z,23.30
2019-05-18T17:59:23.251Z,23.30
2019-05-18T18:01:51.158Z,23.30
2019-05-18T18:04:19.147Z,23.20
2019-05-18T18:06:47.046Z,23.20
2019-05-18T18:09:14.879Z,23.20
2019-05-18T18:11:42.851Z,23.10
2019-05-18T18:14:10.719Z,23.10
2019-05-18T18:16:38.545Z,23.00
2019-05-18T18:19:06.497Z,23.00
2019-05-18T18:21:34.390Z,22.90
2019-05-18T18:24:02.295Z,22.90
2019-05-18T18:26:30.182Z,22.90
2019-05-18T18:28:58.019Z,22.80
2019-05-18T18:31:25.843Z,22.80
2019-05-18T18:33:53.663Z,22.70
2019-05-18T18:36:21.478Z,22.70
2019-05-18T18:38:49.438Z,22.60
2019-05-18T18:41:17.331Z,22.60
2019-05-18T18:43:45.222Z,22.50
2019-05-18T18:46:13.114Z,22.40
2019-05-18T18:48:41.004Z,22.40
2019-05-18T18:51:08.967Z,22.30
2019-05-18T18:53:36.850Z,22.30
2019-05-18T18:56:04.783Z,22.20
2019-05-18T18:58:32.741Z,22.20
2019-05-18T19:01:00.628Z,22.10
2019-05-18T19:03:28.516Z,22.10
2019-05-18T19:05:56.405Z,22.00
2019-05-18T19:08:24.302Z,22.00
2019-05-18T19:10:52.198Z,21.90
2019-05-18T19:13:20.023Z,21.90
2019-05-18T19:15:47.911Z,21.90
2019-05-18T19:18:15.730Z,21.90
2019-05-18T19:20:43.633Z,21.90
2019-05-18T19:23:11.532Z,21.80
2019-05-18T19:25:39.426Z,21.70
2019-05-18T19:28:07.415Z,21.60
2019-05-18T19:30:35.307Z,21.50
2019-05-18T19:33:03.225Z,21.50
2019-05-18T19:35:31.109Z,21.40
2019-05-18T19:37:58.936Z,21.40
2019-05-18T19:40:26.826Z,21.40
2019-05-18T19:42:54.720Z,21.30
2019-05-18T19:45:22.681Z,21.30
2019-05-18T19:47:50.721Z,21.20
2019-05-18T19:50:18.624Z,21.20
2019-05-18T19:52:46.507Z,21.20
2019-05-18T19:55:14.403Z,21.10
2019-05-18T19:57:42.282Z,21.10
2019-05-18T20:00:10.653Z,21.00
2019-05-18T20:02:38.553Z,21.00
2019-05-18T20:05:08.937Z,21.00
2019-05-18T20:07:36.940Z,20.90
2019-05-18T20:10:06.453Z,20.90
2019-05-18T20:12:34.338Z,20.80
2019-05-18T20:15:02.291Z,20.80
2019-05-18T20:17:30.174Z,20.70
2019-05-18T20:19:58.013Z,20.70
2019-05-18T20:22:25.894Z,20.60
2019-05-18T20:24:53.876Z,20.60
2019-05-18T20:27:21.930Z,20.60
2019-05-18T20:29:49.818Z,20.50
2019-05-18T20:32:17.639Z,20.50
2019-05-18T20:34:45.532Z,20.50
2019-05-18T20:37:13.355Z,20.50
2019-05-18T20:39:41.242Z,20.50
2019-05-18T20:42:09.094Z,20.40
2019-05-18T20:44:36.994Z,20.40
2019-05-18T20:47:04.883Z,20.40
2019-05-18T20:49:32.720Z,20.30
2019-05-18T20:52:00.592Z,20.30
2019-05-18T20:54:28.556Z,20.20
2019-05-18T20:56:56.379Z,20.20
2019-05-18T20:59:24.270Z,20.20
2019-05-18T21:01:52.090Z,20.20
2019-05-18T21:04:20.063Z,20.10
2019-05-18T21:06:47.884Z,20.10
2019-05-18T21:09:15.741Z,20.10
2019-05-18T21:11:43.655Z,20.00
2019-05-18T21:14:11.490Z,20.00
2019-05-18T21:16:39.460Z,19.90
2019-05-18T21:19:07.355Z,19.90
2019-05-18T21:21:35.339Z,19.90
2019-05-18T21:24:03.234Z,19.80
2019-05-18T21:26:31.035Z,19.80
2019-05-18T21:29:00.640Z,19.70
2019-05-18T21:31:28.516Z,19.70
2019-05-18T21:33:56.410Z,19.70
2019-05-18T21:36:24.366Z,19.70
2019-05-18T21:38:52.258Z,19.60
2019-05-18T21:41:20.142Z,19.50
2019-05-18T21:43:48.087Z,19.50
2019-05-18T21:46:15.952Z,19.50
2019-05-18T21:48:43.840Z,19.40
2019-05-18T21:51:11.740Z,19.40
2019-05-18T21:53:39.720Z,19.40
2019-05-18T21:56:07.675Z,19.30
2019-05-18T21:58:35.589Z,19.30
2019-05-18T22:01:03.750Z,19.30
2019-05-18T22:03:31.750Z,19.20
2019-05-18T22:05:59.568Z,19.20
2019-05-18T22:08:27.467Z,19.10
2019-05-18T22:10:55.345Z,19.10
2019-05-18T22:13:23.184Z,19.00
2019-05-18T22:15:51.152Z,19.00
2019-05-18T22:18:24.476Z,19.00
2019-05-18T22:20:48.662Z,19.00
2019-05-18T22:23:16.555Z,18.90
2019-05-18T22:25:44.374Z,18.90
2019-05-18T22:28:12.276Z,18.90
2019-05-18T22:30:40.138Z,18.80
2019-05-18T22:33:07.963Z,18.80
2019-05-18T22:35:35.921Z,18.80
2019-05-18T22:38:03.816Z,18.70
2019-05-18T22:40:31.744Z,18.70
2019-05-18T22:42:59.627Z,18.70
2019-05-18T22:45:27.449Z,18.60
2019-05-18T22:47:55.411Z,18.60
2019-05-18T22:50:23.503Z,18.60
2019-05-18T22:52:51.401Z,18.50
2019-05-18T22:55:19.290Z,18.50
2019-05-18T22:57:47.204Z,18.50
2019-05-18T23:00:15.487Z,18.40
2019-05-18T23:02:43.343Z,18.40
2019-05-18T23:05:11.299Z,18.40
2019-05-18T23:07:39.193Z,18.40
2019-05-18T23:10:07.276Z,18.40
2019-05-18T23:12:35.162Z,18.30
2019-05-18T23:15:03.262Z,18.30
2019-05-18T23:17:31.087Z,18.30
2019-05-18T23:19:58.971Z,18.20
2019-05-18T23:22:26.858Z,18.20
2019-05-18T23:25:00.705Z,18.20
2019-05-18T23:27:28.617Z,18.10
2019-05-18T23:29:56.502Z,18.10
2019-05-18T23:32:24.395Z,18.10
2019-05-18T23:34:52.214Z,18.10
2019-05-18T23:37:20.108Z,18.00
2019-05-18T23:39:48.003Z,18.00
2019-05-18T23:42:15.843Z,18.00
2019-05-18T23:44:43.732Z,17.90
2019-05-18T23:47:11.615Z,17.90
2019-05-18T23:49:39.502Z,17.80
2019-05-18T23:52:07.393Z,17.80
2019-05-18T23:54:35.212Z,17.80
2019-05-18T23:57:03.087Z,17.80
2019-05-18T23:59:30.979Z,17.70
